sensor_id;sensor_type;location;lat;lon;timestamp;P1;durP1;ratioP1;P2;durP2;ratioP2
17197;SDS011;8715;51.010;6.812;2023-04-29T00:00:19;947.50;;;872.28;;
17197;SDS011;8715;51.010;6.812;2023-04-29T00:02:45;947.92;;;872.85;;
17197;SDS011;8715;51.010;6.812;2023-04-29T00:05:11;947.70;;;872.42;;
17197;SDS011;8715;51.010;6.812;2023-04-29T00:07:38;948.47;;;873.33;;
17197;SDS011;8715;51.010;6.812;2023-04-29T00:10:05;945.72;;;870.97;;
17197;SDS011;8715;51.010;6.812;2023-04-29T00:12:32;949.88;;;874.80;;
17197;SDS011;8715;51.010;6.812;2023-04-29T00:14:59;944.75;;;869.88;;
17197;SDS011;8715;51.010;6.812;2023-04-29T00:17:27;947.92;;;873.15;;
17197;SDS011;8715;51.010;6.812;2023-04-29T00:19:53;948.35;;;873.70;;
17197;SDS011;8715;51.010;6.812;2023-04-29T00:22:19;948.80;;;873.33;;
17197;SDS011;8715;51.010;6.812;2023-04-29T00:24:47;947.47;;;873.00;;
17197;SDS011;8715;51.010;6.812;2023-04-29T00:27:13;946.80;;;872.05;;
17197;SDS011;8715;51.010;6.812;2023-04-29T00:29:42;948.50;;;873.65;;
17197;SDS011;8715;51.010;6.812;2023-04-29T00:32:08;944.88;;;870.08;;
17197;SDS011;8715;51.010;6.812;2023-04-29T00:34:34;946.05;;;871.80;;
17197;SDS011;8715;51.010;6.812;2023-04-29T00:37:01;947.15;;;872.60;;
17197;SDS011;8715;51.010;6.812;2023-04-29T00:39:28;945.28;;;871.20;;
17197;SDS011;8715;51.010;6.812;2023-04-29T00:41:54;944.65;;;870.38;;
17197;SDS011;8715;51.010;6.812;2023-04-29T00:44:20;948.45;;;873.72;;
17197;SDS011;8715;51.010;6.812;2023-04-29T00:46:48;947.08;;;872.03;;
17197;SDS011;8715;51.010;6.812;2023-04-29T00:49:15;944.97;;;870.95;;
17197;SDS011;8715;51.010;6.812;2023-04-29T00:51:41;946.05;;;871.42;;
17197;SDS011;8715;51.010;6.812;2023-04-29T00:54:07;945.78;;;870.67;;
17197;SDS011;8715;51.010;6.812;2023-04-29T00:56:34;947.20;;;872.40;;
17197;SDS011;8715;51.010;6.812;2023-04-29T00:59:01;944.97;;;870.22;;
17197;SDS011;8715;51.010;6.812;2023-04-29T01:01:28;943.75;;;868.95;;
17197;SDS011;8715;51.010;6.812;2023-04-29T01:03:56;944.28;;;869.65;;
17197;SDS011;8715;51.010;6.812;2023-04-29T01:06:25;940.10;;;864.58;;
17197;SDS011;8715;51.010;6.812;2023-04-29T01:09:04;946.35;;;871.50;;
17197;SDS011;8715;51.010;6.812;2023-04-29T01:11:34;946.80;;;872.45;;
17197;SDS011;8715;51.010;6.812;2023-04-29T01:14:03;936.53;;;861.88;;
17197;SDS011;8715;51.010;6.812;2023-04-29T01:16:33;939.22;;;863.97;;
17197;SDS011;8715;51.010;6.812;2023-04-29T01:19:02;947.78;;;873.50;;
17197;SDS011;8715;51.010;6.812;2023-04-29T01:21:31;946.35;;;872.10;;
17197;SDS011;8715;51.010;6.812;2023-04-29T01:24:00;938.90;;;865.00;;
17197;SDS011;8715;51.010;6.812;2023-04-29T01:26:26;944.58;;;870.50;;
17197;SDS011;8715;51.010;6.812;2023-04-29T01:28:57;941.75;;;868.28;;
17197;SDS011;8715;51.010;6.812;2023-04-29T01:31:27;944.08;;;870.35;;
17197;SDS011;8715;51.010;6.812;2023-04-29T01:33:58;941.30;;;867.97;;
17197;SDS011;8715;51.010;6.812;2023-04-29T01:36:29;941.38;;;868.67;;
17197;SDS011;8715;51.010;6.812;2023-04-29T01:39:02;935.00;;;860.72;;
17197;SDS011;8715;51.010;6.812;2023-04-29T01:41:34;944.08;;;870.50;;
17197;SDS011;8715;51.010;6.812;2023-04-29T01:44:01;939.28;;;865.83;;
17197;SDS011;8715;51.010;6.812;2023-04-29T01:46:28;939.03;;;865.45;;
17197;SDS011;8715;51.010;6.812;2023-04-29T01:48:55;942.42;;;868.55;;
17197;SDS011;8715;51.010;6.812;2023-04-29T01:51:22;942.67;;;869.03;;
17197;SDS011;8715;51.010;6.812;2023-04-29T01:53:48;940.03;;;867.33;;
17197;SDS011;8715;51.010;6.812;2023-04-29T01:56:16;937.42;;;864.53;;
17197;SDS011;8715;51.010;6.812;2023-04-29T01:58:43;946.60;;;872.42;;
17197;SDS011;8715;51.010;6.812;2023-04-29T02:01:09;938.20;;;864.88;;
17197;SDS011;8715;51.010;6.812;2023-04-29T02:03:36;928.70;;;855.75;;
17197;SDS011;8715;51.010;6.812;2023-04-29T02:06:03;942.15;;;869.05;;
17197;SDS011;8715;51.010;6.812;2023-04-29T02:08:31;935.53;;;862.25;;
17197;SDS011;8715;51.010;6.812;2023-04-29T02:10:57;940.28;;;866.80;;
17197;SDS011;8715;51.010;6.812;2023-04-29T02:13:25;945.25;;;871.60;;
17197;SDS011;8715;51.010;6.812;2023-04-29T02:15:52;936.20;;;863.00;;
17197;SDS011;8715;51.010;6.812;2023-04-29T02:18:18;941.67;;;867.33;;
17197;SDS011;8715;51.010;6.812;2023-04-29T02:20:45;942.40;;;868.20;;
17197;SDS011;8715;51.010;6.812;2023-04-29T02:23:11;940.88;;;867.83;;
17197;SDS011;8715;51.010;6.812;2023-04-29T02:25:38;941.25;;;867.05;;
17197;SDS011;8715;51.010;6.812;2023-04-29T02:28:04;932.90;;;859.78;;
17197;SDS011;8715;51.010;6.812;2023-04-29T02:30:32;932.13;;;859.40;;
17197;SDS011;8715;51.010;6.812;2023-04-29T02:32:59;935.83;;;862.88;;
17197;SDS011;8715;51.010;6.812;2023-04-29T02:35:25;936.03;;;863.08;;
17197;SDS011;8715;51.010;6.812;2023-04-29T02:37:51;935.20;;;861.58;;
17197;SDS011;8715;51.010;6.812;2023-04-29T02:40:18;937.92;;;864.20;;
17197;SDS011;8715;51.010;6.812;2023-04-29T02:42:45;939.70;;;865.13;;
17197;SDS011;8715;51.010;6.812;2023-04-29T02:45:11;939.92;;;865.92;;
17197;SDS011;8715;51.010;6.812;2023-04-29T02:47:39;934.53;;;861.00;;
17197;SDS011;8715;51.010;6.812;2023-04-29T02:50:06;940.13;;;865.67;;
17197;SDS011;8715;51.010;6.812;2023-04-29T02:52:32;936.80;;;863.30;;
17197;SDS011;8715;51.010;6.812;2023-04-29T02:54:59;939.38;;;865.38;;
17197;SDS011;8715;51.010;6.812;2023-04-29T02:57:25;938.63;;;863.83;;
17197;SDS011;8715;51.010;6.812;2023-04-29T02:59:53;934.08;;;859.72;;
17197;SDS011;8715;51.010;6.812;2023-04-29T03:02:19;938.05;;;863.58;;
17197;SDS011;8715;51.010;6.812;2023-04-29T03:04:47;941.70;;;867.85;;
17197;SDS011;8715;51.010;6.812;2023-04-29T03:07:14;936.15;;;861.97;;
17197;SDS011;8715;51.010;6.812;2023-04-29T03:09:41;934.70;;;861.80;;
17197;SDS011;8715;51.010;6.812;2023-04-29T03:12:07;933.70;;;861.28;;
17197;SDS011;8715;51.010;6.812;2023-04-29T03:14:34;936.47;;;863.70;;
17197;SDS011;8715;51.010;6.812;2023-04-29T03:17:01;940.78;;;865.28;;
17197;SDS011;8715;51.010;6.812;2023-04-29T03:19:27;937.17;;;863.97;;
17197;SDS011;8715;51.010;6.812;2023-04-29T03:21:55;937.92;;;864.38;;
17197;SDS011;8715;51.010;6.812;2023-04-29T03:24:22;930.67;;;856.20;;
17197;SDS011;8715;51.010;6.812;2023-04-29T03:26:48;935.58;;;862.95;;
17197;SDS011;8715;51.010;6.812;2023-04-29T03:29:14;934.30;;;860.90;;
17197;SDS011;8715;51.010;6.812;2023-04-29T03:31:41;932.90;;;860.10;;
17197;SDS011;8715;51.010;6.812;2023-04-29T03:34:07;933.90;;;859.40;;
17197;SDS011;8715;51.010;6.812;2023-04-29T03:36:34;935.38;;;860.80;;
17197;SDS011;8715;51.010;6.812;2023-04-29T03:39:02;939.00;;;864.47;;
17197;SDS011;8715;51.010;6.812;2023-04-29T03:41:29;932.92;;;859.63;;
17197;SDS011;8715;51.010;6.812;2023-04-29T03:43:55;940.42;;;866.60;;
17197;SDS011;8715;51.010;6.812;2023-04-29T03:46:24;933.78;;;861.25;;
17197;SDS011;8715;51.010;6.812;2023-04-29T03:48:51;929.97;;;856.67;;
17197;SDS011;8715;51.010;6.812;2023-04-29T03:51:20;926.05;;;855.95;;
17197;SDS011;8715;51.010;6.812;2023-04-29T03:53:46;930.53;;;858.95;;
17197;SDS011;8715;51.010;6.812;2023-04-29T03:56:14;926.38;;;855.33;;
17197;SDS011;8715;51.010;6.812;2023-04-29T03:58:40;932.20;;;860.60;;
17197;SDS011;8715;51.010;6.812;2023-04-29T04:01:07;929.03;;;856.38;;
17197;SDS011;8715;51.010;6.812;2023-04-29T04:03:33;930.45;;;859.17;;
17197;SDS011;8715;51.010;6.812;2023-04-29T04:06:00;935.08;;;862.47;;
17197;SDS011;8715;51.010;6.812;2023-04-29T04:08:26;928.05;;;857.50;;
17197;SDS011;8715;51.010;6.812;2023-04-29T04:10:53;927.67;;;857.17;;
17197;SDS011;8715;51.010;6.812;2023-04-29T04:13:21;926.67;;;855.92;;
17197;SDS011;8715;51.010;6.812;2023-04-29T04:15:50;926.67;;;855.45;;
17197;SDS011;8715;51.010;6.812;2023-04-29T04:18:17;933.47;;;861.72;;
17197;SDS011;8715;51.010;6.812;2023-04-29T04:20:43;924.55;;;854.47;;
17197;SDS011;8715;51.010;6.812;2023-04-29T04:23:09;919.42;;;848.72;;
17197;SDS011;8715;51.010;6.812;2023-04-29T04:25:36;928.40;;;857.28;;
17197;SDS011;8715;51.010;6.812;2023-04-29T04:28:02;933.78;;;862.03;;
17197;SDS011;8715;51.010;6.812;2023-04-29T04:30:30;928.10;;;856.53;;
17197;SDS011;8715;51.010;6.812;2023-04-29T04:32:56;924.08;;;852.97;;
17197;SDS011;8715;51.010;6.812;2023-04-29T04:35:23;923.28;;;852.60;;
17197;SDS011;8715;51.010;6.812;2023-04-29T04:37:49;930.50;;;859.40;;
17197;SDS011;8715;51.010;6.812;2023-04-29T04:40:16;927.90;;;857.97;;
17197;SDS011;8715;51.010;6.812;2023-04-29T04:42:42;929.70;;;858.70;;
17197;SDS011;8715;51.010;6.812;2023-04-29T04:45:09;923.58;;;853.10;;
17197;SDS011;8715;51.010;6.812;2023-04-29T04:47:38;931.05;;;859.40;;
17197;SDS011;8715;51.010;6.812;2023-04-29T04:52:31;917.88;;;849.13;;
17197;SDS011;8715;51.010;6.812;2023-04-29T04:54:57;924.53;;;855.30;;
17197;SDS011;8715;51.010;6.812;2023-04-29T04:57:24;925.38;;;855.85;;
17197;SDS011;8715;51.010;6.812;2023-04-29T04:59:50;924.63;;;854.28;;
17197;SDS011;8715;51.010;6.812;2023-04-29T05:02:17;927.55;;;857.38;;
17197;SDS011;8715;51.010;6.812;2023-04-29T05:04:45;922.00;;;852.38;;
17197;SDS011;8715;51.010;6.812;2023-04-29T05:07:11;922.10;;;852.60;;
17197;SDS011;8715;51.010;6.812;2023-04-29T05:09:37;921.85;;;852.65;;
17197;SDS011;8715;51.010;6.812;2023-04-29T05:12:04;917.92;;;848.83;;
17197;SDS011;8715;51.010;6.812;2023-04-29T05:14:30;924.03;;;855.10;;
17197;SDS011;8715;51.010;6.812;2023-04-29T05:16:57;920.80;;;851.58;;
17197;SDS011;8715;51.010;6.812;2023-04-29T05:19:24;924.20;;;854.78;;
17197;SDS011;8715;51.010;6.812;2023-04-29T05:21:51;928.75;;;859.05;;
17197;SDS011;8715;51.010;6.812;2023-04-29T05:24:18;924.70;;;855.10;;
17197;SDS011;8715;51.010;6.812;2023-04-29T05:26:44;927.80;;;857.58;;
17197;SDS011;8715;51.010;6.812;2023-04-29T05:29:11;918.67;;;849.30;;
17197;SDS011;8715;51.010;6.812;2023-04-29T05:31:37;925.40;;;855.90;;
17197;SDS011;8715;51.010;6.812;2023-04-29T05:34:03;913.42;;;844.90;;
17197;SDS011;8715;51.010;6.812;2023-04-29T05:36:30;921.45;;;851.83;;
17197;SDS011;8715;51.010;6.812;2023-04-29T05:38:58;926.50;;;857.42;;
17197;SDS011;8715;51.010;6.812;2023-04-29T05:41:24;920.17;;;851.33;;
17197;SDS011;8715;51.010;6.812;2023-04-29T05:43:51;929.70;;;860.45;;
17197;SDS011;8715;51.010;6.812;2023-04-29T05:46:17;920.38;;;851.33;;
17197;SDS011;8715;51.010;6.812;2023-04-29T05:48:44;923.05;;;854.00;;
17197;SDS011;8715;51.010;6.812;2023-04-29T05:51:11;925.90;;;856.50;;
17197;SDS011;8715;51.010;6.812;2023-04-29T05:53:37;927.30;;;858.30;;
17197;SDS011;8715;51.010;6.812;2023-04-29T05:56:06;921.15;;;852.58;;
17197;SDS011;8715;51.010;6.812;2023-04-29T05:58:32;929.20;;;859.88;;
17197;SDS011;8715;51.010;6.812;2023-04-29T06:00:59;932.83;;;862.50;;
17197;SDS011;8715;51.010;6.812;2023-04-29T06:03:25;915.75;;;846.17;;
17197;SDS011;8715;51.010;6.812;2023-04-29T06:05:52;924.08;;;854.83;;
17197;SDS011;8715;51.010;6.812;2023-04-29T06:08:19;932.03;;;862.33;;
17197;SDS011;8715;51.010;6.812;2023-04-29T06:10:45;923.03;;;854.67;;
17197;SDS011;8715;51.010;6.812;2023-04-29T06:13:13;924.22;;;855.67;;
17197;SDS011;8715;51.010;6.812;2023-04-29T06:15:39;927.60;;;858.17;;
17197;SDS011;8715;51.010;6.812;2023-04-29T06:18:06;924.70;;;855.80;;
17197;SDS011;8715;51.010;6.812;2023-04-29T06:20:32;918.15;;;848.83;;
17197;SDS011;8715;51.010;6.812;2023-04-29T06:22:59;924.25;;;855.10;;
17197;SDS011;8715;51.010;6.812;2023-04-29T06:25:25;926.88;;;857.35;;
17197;SDS011;8715;51.010;6.812;2023-04-29T06:27:51;919.95;;;850.80;;
17197;SDS011;8715;51.010;6.812;2023-04-29T06:30:19;930.47;;;860.92;;
17197;SDS011;8715;51.010;6.812;2023-04-29T06:32:46;923.78;;;854.92;;
17197;SDS011;8715;51.010;6.812;2023-04-29T06:35:12;925.13;;;855.97;;
17197;SDS011;8715;51.010;6.812;2023-04-29T06:37:39;928.10;;;858.47;;
17197;SDS011;8715;51.010;6.812;2023-04-29T06:40:05;918.17;;;848.25;;
17197;SDS011;8715;51.010;6.812;2023-04-29T06:42:32;924.92;;;855.17;;
17197;SDS011;8715;51.010;6.812;2023-04-29T06:44:58;918.13;;;848.40;;
17197;SDS011;8715;51.010;6.812;2023-04-29T06:47:26;925.90;;;856.13;;
17197;SDS011;8715;51.010;6.812;2023-04-29T06:49:53;927.22;;;857.53;;
17197;SDS011;8715;51.010;6.812;2023-04-29T06:52:19;925.05;;;855.42;;
17197;SDS011;8715;51.010;6.812;2023-04-29T06:54:46;931.38;;;861.53;;
17197;SDS011;8715;51.010;6.812;2023-04-29T06:57:12;928.40;;;858.55;;
17197;SDS011;8715;51.010;6.812;2023-04-29T06:59:38;933.00;;;862.75;;
17197;SDS011;8715;51.010;6.812;2023-04-29T07:02:05;929.03;;;858.75;;
17197;SDS011;8715;51.010;6.812;2023-04-29T07:04:33;929.33;;;859.55;;
17197;SDS011;8715;51.010;6.812;2023-04-29T07:07:01;919.33;;;848.25;;
17197;SDS011;8715;51.010;6.812;2023-04-29T07:09:27;935.90;;;864.55;;
17197;SDS011;8715;51.010;6.812;2023-04-29T07:11:54;936.83;;;865.65;;
17197;SDS011;8715;51.010;6.812;2023-04-29T07:14:20;935.60;;;863.92;;
17197;SDS011;8715;51.010;6.812;2023-04-29T07:16:51;933.15;;;862.42;;
17197;SDS011;8715;51.010;6.812;2023-04-29T07:19:18;932.28;;;861.30;;
17197;SDS011;8715;51.010;6.812;2023-04-29T07:21:45;938.63;;;867.25;;
17197;SDS011;8715;51.010;6.812;2023-04-29T07:24:12;934.50;;;862.70;;
17197;SDS011;8715;51.010;6.812;2023-04-29T07:26:38;938.22;;;866.35;;
17197;SDS011;8715;51.010;6.812;2023-04-29T07:29:05;938.05;;;865.13;;
17197;SDS011;8715;51.010;6.812;2023-04-29T07:31:32;933.53;;;861.55;;
17197;SDS011;8715;51.010;6.812;2023-04-29T07:33:58;931.78;;;858.88;;
17197;SDS011;8715;51.010;6.812;2023-04-29T07:36:24;939.70;;;867.55;;
17197;SDS011;8715;51.010;6.812;2023-04-29T07:38:53;935.03;;;863.55;;
17197;SDS011;8715;51.010;6.812;2023-04-29T07:41:20;934.78;;;863.22;;
17197;SDS011;8715;51.010;6.812;2023-04-29T07:43:47;931.05;;;859.85;;
17197;SDS011;8715;51.010;6.812;2023-04-29T07:46:13;933.97;;;862.60;;
17197;SDS011;8715;51.010;6.812;2023-04-29T07:48:41;934.42;;;863.20;;
17197;SDS011;8715;51.010;6.812;2023-04-29T07:51:11;940.47;;;868.53;;
17197;SDS011;8715;51.010;6.812;2023-04-29T07:53:37;930.03;;;859.33;;
17197;SDS011;8715;51.010;6.812;2023-04-29T07:56:06;936.30;;;865.10;;
17197;SDS011;8715;51.010;6.812;2023-04-29T07:58:32;931.25;;;860.38;;
17197;SDS011;8715;51.010;6.812;2023-04-29T08:01:03;928.60;;;858.22;;
17197;SDS011;8715;51.010;6.812;2023-04-29T08:03:30;928.85;;;858.72;;
17197;SDS011;8715;51.010;6.812;2023-04-29T08:05:59;930.78;;;860.85;;
17197;SDS011;8715;51.010;6.812;2023-04-29T08:08:26;935.50;;;864.88;;
17197;SDS011;8715;51.010;6.812;2023-04-29T08:10:52;932.42;;;861.70;;
17197;SDS011;8715;51.010;6.812;2023-04-29T08:13:20;930.40;;;861.00;;
17197;SDS011;8715;51.010;6.812;2023-04-29T08:15:46;935.30;;;865.00;;
17197;SDS011;8715;51.010;6.812;2023-04-29T08:18:13;921.45;;;850.83;;
17197;SDS011;8715;51.010;6.812;2023-04-29T08:20:39;928.90;;;858.67;;
17197;SDS011;8715;51.010;6.812;2023-04-29T08:23:06;925.95;;;856.00;;
17197;SDS011;8715;51.010;6.812;2023-04-29T08:25:32;929.35;;;859.28;;
17197;SDS011;8715;51.010;6.812;2023-04-29T08:27:58;926.70;;;857.15;;
17197;SDS011;8715;51.010;6.812;2023-04-29T08:30:26;932.08;;;862.10;;
17197;SDS011;8715;51.010;6.812;2023-04-29T08:32:53;934.92;;;864.25;;
17197;SDS011;8715;51.010;6.812;2023-04-29T08:35:19;920.25;;;849.75;;
17197;SDS011;8715;51.010;6.812;2023-04-29T08:37:45;932.28;;;861.28;;
17197;SDS011;8715;51.010;6.812;2023-04-29T08:40:12;932.33;;;861.15;;
17197;SDS011;8715;51.010;6.812;2023-04-29T08:42:38;937.15;;;865.05;;
17197;SDS011;8715;51.010;6.812;2023-04-29T08:45:05;938.92;;;866.75;;
17197;SDS011;8715;51.010;6.812;2023-04-29T08:47:33;927.22;;;854.95;;
17197;SDS011;8715;51.010;6.812;2023-04-29T08:50:00;936.72;;;864.40;;
17197;SDS011;8715;51.010;6.812;2023-04-29T08:52:28;927.20;;;854.33;;
17197;SDS011;8715;51.010;6.812;2023-04-29T08:54:54;939.08;;;865.97;;
17197;SDS011;8715;51.010;6.812;2023-04-29T08:57:21;943.70;;;870.33;;
17197;SDS011;8715;51.010;6.812;2023-04-29T08:59:48;944.92;;;871.22;;
17197;SDS011;8715;51.010;6.812;2023-04-29T09:02:15;941.17;;;868.30;;
17197;SDS011;8715;51.010;6.812;2023-04-29T09:04:46;941.55;;;868.40;;
17197;SDS011;8715;51.010;6.812;2023-04-29T09:07:12;943.08;;;869.92;;
17197;SDS011;8715;51.010;6.812;2023-04-29T09:09:39;931.97;;;858.35;;
17197;SDS011;8715;51.010;6.812;2023-04-29T09:12:06;945.15;;;871.47;;
17197;SDS011;8715;51.010;6.812;2023-04-29T09:14:33;935.20;;;861.08;;
17197;SDS011;8715;51.010;6.812;2023-04-29T09:17:00;941.22;;;868.33;;
17197;SDS011;8715;51.010;6.812;2023-04-29T09:19:28;941.58;;;868.22;;
17197;SDS011;8715;51.010;6.812;2023-04-29T09:21:56;936.05;;;863.42;;
17197;SDS011;8715;51.010;6.812;2023-04-29T09:24:23;937.45;;;865.10;;
17197;SDS011;8715;51.010;6.812;2023-04-29T09:26:50;943.08;;;870.13;;
17197;SDS011;8715;51.010;6.812;2023-04-29T09:29:17;935.60;;;863.15;;
17197;SDS011;8715;51.010;6.812;2023-04-29T09:31:43;942.67;;;869.63;;
17197;SDS011;8715;51.010;6.812;2023-04-29T09:34:10;940.25;;;867.30;;
17197;SDS011;8715;51.010;6.812;2023-04-29T09:36:38;936.83;;;865.13;;
17197;SDS011;8715;51.010;6.812;2023-04-29T09:39:06;940.50;;;868.30;;
17197;SDS011;8715;51.010;6.812;2023-04-29T09:41:36;937.72;;;865.15;;
17197;SDS011;8715;51.010;6.812;2023-04-29T09:44:03;938.05;;;865.75;;
17197;SDS011;8715;51.010;6.812;2023-04-29T09:46:31;935.38;;;863.47;;
17197;SDS011;8715;51.010;6.812;2023-04-29T09:48:57;936.90;;;864.80;;
17197;SDS011;8715;51.010;6.812;2023-04-29T09:51:24;935.03;;;863.42;;
17197;SDS011;8715;51.010;6.812;2023-04-29T09:53:50;937.25;;;865.38;;
17197;SDS011;8715;51.010;6.812;2023-04-29T09:56:18;938.92;;;867.20;;
17197;SDS011;8715;51.010;6.812;2023-04-29T09:58:45;937.05;;;864.67;;
17197;SDS011;8715;51.010;6.812;2023-04-29T10:01:11;936.47;;;864.15;;
17197;SDS011;8715;51.010;6.812;2023-04-29T10:03:38;935.95;;;863.78;;
17197;SDS011;8715;51.010;6.812;2023-04-29T10:06:06;940.70;;;867.92;;
17197;SDS011;8715;51.010;6.812;2023-04-29T10:08:33;941.47;;;868.88;;
17197;SDS011;8715;51.010;6.812;2023-04-29T10:11:00;927.78;;;855.53;;
17197;SDS011;8715;51.010;6.812;2023-04-29T10:13:28;930.92;;;858.00;;
17197;SDS011;8715;51.010;6.812;2023-04-29T10:15:57;929.58;;;857.47;;
17197;SDS011;8715;51.010;6.812;2023-04-29T10:18:25;935.53;;;864.33;;
17197;SDS011;8715;51.010;6.812;2023-04-29T10:20:54;937.88;;;866.45;;
17197;SDS011;8715;51.010;6.812;2023-04-29T10:23:22;934.97;;;863.25;;
17197;SDS011;8715;51.010;6.812;2023-04-29T10:25:50;934.72;;;863.05;;
17197;SDS011;8715;51.010;6.812;2023-04-29T10:28:17;938.67;;;867.22;;
17197;SDS011;8715;51.010;6.812;2023-04-29T10:30:49;935.05;;;863.83;;
17197;SDS011;8715;51.010;6.812;2023-04-29T10:33:16;932.47;;;861.83;;
17197;SDS011;8715;51.010;6.812;2023-04-29T10:35:43;933.22;;;862.08;;
17197;SDS011;8715;51.010;6.812;2023-04-29T10:38:10;932.95;;;861.53;;
17197;SDS011;8715;51.010;6.812;2023-04-29T10:40:39;931.08;;;859.92;;
17197;SDS011;8715;51.010;6.812;2023-04-29T10:43:07;938.80;;;867.05;;
17197;SDS011;8715;51.010;6.812;2023-04-29T10:45:33;937.08;;;865.33;;
17197;SDS011;8715;51.010;6.812;2023-04-29T10:48:11;935.05;;;863.08;;
17197;SDS011;8715;51.010;6.812;2023-04-29T10:50:39;937.47;;;866.03;;
17197;SDS011;8715;51.010;6.812;2023-04-29T10:53:06;928.80;;;858.20;;
17197;SDS011;8715;51.010;6.812;2023-04-29T10:55:34;932.30;;;860.85;;
17197;SDS011;8715;51.010;6.812;2023-04-29T10:58:01;936.22;;;865.13;;
17197;SDS011;8715;51.010;6.812;2023-04-29T11:00:29;935.67;;;864.25;;
17197;SDS011;8715;51.010;6.812;2023-04-29T11:02:56;937.53;;;865.83;;
17197;SDS011;8715;51.010;6.812;2023-04-29T11:05:30;933.03;;;861.28;;
17197;SDS011;8715;51.010;6.812;2023-04-29T11:08:09;932.55;;;860.92;;
17197;SDS011;8715;51.010;6.812;2023-04-29T11:10:37;939.33;;;867.17;;
17197;SDS011;8715;51.010;6.812;2023-04-29T11:13:22;934.55;;;862.63;;
17197;SDS011;8715;51.010;6.812;2023-04-29T11:15:49;934.83;;;863.63;;
17197;SDS011;8715;51.010;6.812;2023-04-29T11:18:16;938.42;;;866.20;;
17197;SDS011;8715;51.010;6.812;2023-04-29T11:23:25;931.97;;;857.75;;
17197;SDS011;8715;51.010;6.812;2023-04-29T11:25:52;938.25;;;865.15;;
17197;SDS011;8715;51.010;6.812;2023-04-29T11:28:20;941.67;;;867.47;;
17197;SDS011;8715;51.010;6.812;2023-04-29T11:30:46;941.67;;;867.03;;
17197;SDS011;8715;51.010;6.812;2023-04-29T11:33:13;948.20;;;873.22;;
17197;SDS011;8715;51.010;6.812;2023-04-29T11:35:40;949.63;;;873.92;;
17197;SDS011;8715;51.010;6.812;2023-04-29T11:38:08;942.72;;;867.38;;
17197;SDS011;8715;51.010;6.812;2023-04-29T11:40:40;946.20;;;871.00;;
17197;SDS011;8715;51.010;6.812;2023-04-29T11:43:06;937.47;;;862.85;;
17197;SDS011;8715;51.010;6.812;2023-04-29T11:45:34;935.42;;;859.15;;
17197;SDS011;8715;51.010;6.812;2023-04-29T11:48:00;942.53;;;867.28;;
17197;SDS011;8715;51.010;6.812;2023-04-29T11:50:28;947.05;;;871.03;;
17197;SDS011;8715;51.010;6.812;2023-04-29T11:52:56;951.70;;;875.10;;
17197;SDS011;8715;51.010;6.812;2023-04-29T11:55:23;953.38;;;875.75;;
17197;SDS011;8715;51.010;6.812;2023-04-29T11:57:51;951.03;;;873.00;;
17197;SDS011;8715;51.010;6.812;2023-04-29T12:00:17;954.45;;;875.75;;
17197;SDS011;8715;51.010;6.812;2023-04-29T12:02:44;951.92;;;874.40;;
17197;SDS011;8715;51.010;6.812;2023-04-29T12:05:11;956.30;;;877.53;;
17197;SDS011;8715;51.010;6.812;2023-04-29T12:07:39;956.40;;;877.28;;
17197;SDS011;8715;51.010;6.812;2023-04-29T12:10:07;954.05;;;876.03;;
17197;SDS011;8715;51.010;6.812;2023-04-29T12:12:33;953.00;;;874.97;;
17197;SDS011;8715;51.010;6.812;2023-04-29T12:15:01;951.92;;;873.70;;
17197;SDS011;8715;51.010;6.812;2023-04-29T12:17:29;953.95;;;876.47;;
17197;SDS011;8715;51.010;6.812;2023-04-29T12:19:56;945.80;;;867.10;;
17197;SDS011;8715;51.010;6.812;2023-04-29T12:22:22;956.22;;;877.15;;
17197;SDS011;8715;51.010;6.812;2023-04-29T12:24:56;958.55;;;879.55;;
17197;SDS011;8715;51.010;6.812;2023-04-29T12:27:22;956.08;;;877.53;;
17197;SDS011;8715;51.010;6.812;2023-04-29T12:29:50;959.88;;;880.33;;
17197;SDS011;8715;51.010;6.812;2023-04-29T12:32:20;954.33;;;875.47;;
17197;SDS011;8715;51.010;6.812;2023-04-29T12:34:49;955.65;;;876.40;;
17197;SDS011;8715;51.010;6.812;2023-04-29T12:37:16;966.08;;;885.10;;
17197;SDS011;8715;51.010;6.812;2023-04-29T12:39:43;964.55;;;883.97;;
17197;SDS011;8715;51.010;6.812;2023-04-29T12:42:13;964.45;;;883.80;;
17197;SDS011;8715;51.010;6.812;2023-04-29T12:44:40;959.83;;;879.92;;
17197;SDS011;8715;51.010;6.812;2023-04-29T12:47:07;955.88;;;875.05;;
17197;SDS011;8715;51.010;6.812;2023-04-29T12:49:35;969.70;;;888.38;;
17197;SDS011;8715;51.010;6.812;2023-04-29T12:52:01;966.33;;;886.05;;
17197;SDS011;8715;51.010;6.812;2023-04-29T12:54:28;970.55;;;888.95;;
17197;SDS011;8715;51.010;6.812;2023-04-29T12:56:54;965.92;;;885.58;;
17197;SDS011;8715;51.010;6.812;2023-04-29T12:59:21;963.65;;;882.28;;
17197;SDS011;8715;51.010;6.812;2023-04-29T13:01:47;968.10;;;886.03;;
17197;SDS011;8715;51.010;6.812;2023-04-29T13:04:14;972.45;;;889.47;;
17197;SDS011;8715;51.010;6.812;2023-04-29T13:06:41;970.30;;;887.40;;
17197;SDS011;8715;51.010;6.812;2023-04-29T13:09:08;976.55;;;892.72;;
17197;SDS011;8715;51.010;6.812;2023-04-29T13:11:36;978.17;;;893.97;;
17197;SDS011;8715;51.010;6.812;2023-04-29T13:14:02;970.30;;;887.72;;
17197;SDS011;8715;51.010;6.812;2023-04-29T13:16:30;971.85;;;888.40;;
17197;SDS011;8715;51.010;6.812;2023-04-29T13:18:57;974.38;;;891.40;;
17197;SDS011;8715;51.010;6.812;2023-04-29T13:21:23;975.90;;;892.35;;
17197;SDS011;8715;51.010;6.812;2023-04-29T13:23:53;969.22;;;885.15;;
17197;SDS011;8715;51.010;6.812;2023-04-29T13:26:19;971.40;;;887.88;;
17197;SDS011;8715;51.010;6.812;2023-04-29T13:28:46;975.78;;;891.30;;
17197;SDS011;8715;51.010;6.812;2023-04-29T13:31:12;977.65;;;893.40;;
17197;SDS011;8715;51.010;6.812;2023-04-29T13:33:38;976.22;;;892.08;;
17197;SDS011;8715;51.010;6.812;2023-04-29T13:36:05;979.42;;;894.50;;
17197;SDS011;8715;51.010;6.812;2023-04-29T13:38:32;977.70;;;892.55;;
17197;SDS011;8715;51.010;6.812;2023-04-29T13:41:00;977.65;;;892.28;;
17197;SDS011;8715;51.010;6.812;2023-04-29T13:43:26;974.78;;;889.95;;
17197;SDS011;8715;51.010;6.812;2023-04-29T13:45:52;974.95;;;890.80;;
17197;SDS011;8715;51.010;6.812;2023-04-29T13:48:19;972.38;;;886.88;;
17197;SDS011;8715;51.010;6.812;2023-04-29T13:50:50;977.67;;;892.40;;
17197;SDS011;8715;51.010;6.812;2023-04-29T13:53:16;977.45;;;892.83;;
17197;SDS011;8715;51.010;6.812;2023-04-29T13:55:42;969.78;;;884.70;;
17197;SDS011;8715;51.010;6.812;2023-04-29T13:58:11;974.55;;;890.70;;
17197;SDS011;8715;51.010;6.812;2023-04-29T14:00:37;976.10;;;891.85;;
17197;SDS011;8715;51.010;6.812;2023-04-29T14:03:04;973.83;;;890.08;;
17197;SDS011;8715;51.010;6.812;2023-04-29T14:05:31;965.75;;;881.80;;
17197;SDS011;8715;51.010;6.812;2023-04-29T14:07:58;972.05;;;888.83;;
17197;SDS011;8715;51.010;6.812;2023-04-29T14:10:24;974.97;;;890.35;;
17197;SDS011;8715;51.010;6.812;2023-04-29T14:12:50;974.88;;;891.05;;